Oceania — SQOC — position and weather

sailwx.info

Track history (hours):
 
Tides and Currents Weather Stations Pressure Air Temp Water Temp Dewpoint Dewpoint Depression Visibility Wind Speed Wind Dir Waves Ship Positions

Oceanographic research ship Oceania (Poland)

Detailed information on ship capabilities available from University of Delaware's Ocean Information Center and ARCUS's ALIAS (Arctic Logistics Information and Support) project.

Last reported at 2019-Feb-23 22:48 UTC. Time now 2019-Feb-23 23:10 UTC.
Position N 55°04' E 015°09'.

Length 49 m; beam 9 m.

Type: Sailing vessel. MMSI: 261000142.

Date/timePositionNaut miles runAvg speedWind from/ knotsBaromVisibWave heightAir tempDewpointWater temp
2019-Feb-23 22:48N 55°04' E 015°09'0 0.0
2019-Feb-23 20:15N 55°04' E 015°09'0 0.0
2019-Feb-23 19:11N 55°04' E 015°09'1 4.3
2019-Feb-23 18:56N 55°04' E 015°11'4 8.0
2019-Feb-23 18:29N 55°05' E 015°17'4 7.6
2019-Feb-23 17:59N 55°07' E 015°23'19 6.8
2019-Feb-23 15:08N 55°13' E 015°54'1 3.8
2019-Feb-23 14:55N 55°13' E 015°56'6 4.1
2019-Feb-23 13:22N 55°13' E 016°07'4 4.3
2019-Feb-23 12:32N 55°13' E 016°13'0 4.5
2019-Feb-23 12:31N 55°13' E 016°13'16 3.4
2019-Feb-23 07:57N 55°13' E 016°41'  
2019-Feb-21 01:57N 55°07' E 018°46'2 4.7
2019-Feb-21 01:30N 55°05' E 018°49'12 4.7
2019-Feb-20 22:51N 54°57' E 019°05'17 2.8
2019-Feb-20 16:53N 54°41' E 019°12'2 4.7
2019-Feb-20 16:30N 54°40' E 019°11'2 4.4
2019-Feb-20 16:00N 54°38' E 019°09'2 4.7
2019-Feb-20 15:30N 54°35' E 019°08'2 4.6
2019-Feb-20 15:01N 54°33' E 019°06'2 4.6
2019-Feb-20 14:30N 54°31' E 019°04'2 4.6
2019-Feb-20 14:01N 54°29' E 019°03'2 4.4
2019-Feb-20 13:31N 54°27' E 019°01'2 4.7
2019-Feb-20 13:00N 54°25' E 018°59'2 4.4
2019-Feb-20 12:31N 54°23' E 018°57'510.4
2019-Feb-20 12:01N 54°24' E 018°49'510.8
2019-Feb-20 11:31N 54°26' E 018°40'2 4.4
2019-Feb-20 10:59N 54°24' E 018°40'0 0.0
2019-Feb-20 10:26N 54°24' E 018°40'0 0.0
2019-Feb-20 09:59N 54°24' E 018°40'0 0.0
2019-Feb-20 09:29N 54°24' E 018°40'0 0.0
2019-Feb-20 08:59N 54°24' E 018°40'0 0.0
2019-Feb-20 08:26N 54°24' E 018°40'0 0.0
2019-Feb-20 07:59N 54°24' E 018°40'0 0.0
2019-Feb-20 07:29N 54°24' E 018°40'0 0.0
2019-Feb-20 06:59N 54°24' E 018°40'0 0.0
2019-Feb-20 06:29N 54°24' E 018°40'0 0.0
2019-Feb-20 05:59N 54°24' E 018°40'0 0.0
2019-Feb-20 05:29N 54°24' E 018°40'0 0.0
2019-Feb-20 04:56N 54°24' E 018°40'0 0.0
2019-Feb-20 04:23N 54°24' E 018°40'0 0.0
2019-Feb-20 03:59N 54°24' E 018°40'0 0.0
2019-Feb-20 02:59N 54°24' E 018°40'0 0.0
2019-Feb-20 02:29N 54°24' E 018°40'0 0.0
2019-Feb-20 01:59N 54°24' E 018°40'0 0.0
2019-Feb-20 01:29N 54°24' E 018°40'0 0.0
2019-Feb-20 00:59N 54°24' E 018°40'0 0.0
2019-Feb-20 00:29N 54°24' E 018°40'0 0.0
2019-Feb-19 23:59N 54°24' E 018°40'0 0.0
2019-Feb-19 23:29N 54°24' E 018°40'0 0.0
2019-Feb-19 22:59N 54°24' E 018°40'0 0.0
2019-Feb-19 22:29N 54°24' E 018°40'0 0.0
2019-Feb-19 21:59N 54°24' E 018°40'0 0.0
2019-Feb-19 21:26N 54°24' E 018°40'0 0.0
2019-Feb-19 20:56N 54°24' E 018°40'0 0.0
2019-Feb-19 20:26N 54°24' E 018°40'0 0.0
2019-Feb-19 19:56N 54°24' E 018°40'0 0.0
2019-Feb-19 19:26N 54°24' E 018°40'0 0.0
2019-Feb-19 18:56N 54°24' E 018°40'0 0.0
2019-Feb-19 18:26N 54°24' E 018°40'0 0.0
2019-Feb-19 17:56N 54°24' E 018°40'0 0.0
2019-Feb-19 17:20N 54°24' E 018°40'0 0.0
2019-Feb-19 16:59N 54°24' E 018°40'0 0.0
2019-Feb-19 16:29N 54°24' E 018°40'0 0.0
2019-Feb-19 15:59N 54°24' E 018°40'0 0.0
2019-Feb-19 15:29N 54°24' E 018°40'0 0.0
2019-Feb-19 14:59N 54°24' E 018°40'0 0.0
2019-Feb-19 14:26N 54°24' E 018°40'0 0.0
2019-Feb-19 13:56N 54°24' E 018°40'0 0.0
2019-Feb-19 13:29N 54°24' E 018°40'0 0.0
2019-Feb-19 12:56N 54°24' E 018°40'0 0.0
2019-Feb-19 12:29N 54°24' E 018°40'0 0.0
2019-Feb-19 11:56N 54°24' E 018°40'0 0.0
2019-Feb-19 11:26N 54°24' E 018°40'0 0.0
2019-Feb-19 10:56N 54°24' E 018°40'0 0.0
2019-Feb-19 10:29N 54°24' E 018°40'0 0.0
2019-Feb-19 09:56N 54°24' E 018°40'0 0.0
2019-Feb-19 09:29N 54°24' E 018°40'0 0.0
2019-Feb-19 08:59N 54°24' E 018°40'0 0.0
2019-Feb-19 08:23N 54°24' E 018°40'0 0.0
2019-Feb-19 07:56N 54°24' E 018°40'0 0.0
2019-Feb-19 07:29N 54°24' E 018°40'0 0.0
2019-Feb-19 06:56N 54°24' E 018°40'0 0.0
2019-Feb-19 06:29N 54°24' E 018°40'0 0.0
2019-Feb-19 05:56N 54°24' E 018°40'0 0.0
2019-Feb-19 05:29N 54°24' E 018°40'0 0.0
2019-Feb-19 04:59N 54°24' E 018°40'0 0.0
2019-Feb-19 04:29N 54°24' E 018°40'0 0.0
2019-Feb-19 03:59N 54°24' E 018°40'0 0.0
2019-Feb-19 03:29N 54°24' E 018°40'0 0.0
2019-Feb-19 02:59N 54°24' E 018°40'0 0.0
2019-Feb-19 02:26N 54°24' E 018°40'0 0.0
2019-Feb-19 01:56N 54°24' E 018°40'0 0.0
2019-Feb-19 01:29N 54°24' E 018°40'0 0.0
2019-Feb-19 00:59N 54°24' E 018°40'0 0.0
2019-Feb-19 00:29N 54°24' E 018°40'0 0.0
2019-Feb-18 23:59N 54°24' E 018°40'0 0.0
2019-Feb-18 23:29N 54°24' E 018°40'0 0.0
2019-Feb-18 22:56N 54°24' E 018°40'0 0.0
2019-Feb-18 22:23N 54°24' E 018°40'0 0.0
2019-Feb-18 21:56N 54°24' E 018°40'0 0.0
2019-Feb-18 21:29N 54°24' E 018°40'0 0.0
2019-Feb-18 20:59N 54°24' E 018°40'0 0.0
2019-Feb-18 20:29N 54°24' E 018°40'0 0.0
2019-Feb-18 19:59N 54°24' E 018°40'0 0.0
2019-Feb-18 19:17N 54°24' E 018°40'0 0.0
2019-Feb-18 18:59N 54°24' E 018°40'0 0.0
2019-Feb-18 18:26N 54°24' E 018°40'0 0.0
2019-Feb-18 17:59N 54°24' E 018°40'0 0.0
2019-Feb-18 17:29N 54°24' E 018°40'0 0.0
2019-Feb-18 16:56N 54°24' E 018°40'0 0.0
2019-Feb-18 16:29N 54°24' E 018°40'0 0.0
2019-Feb-18 15:53N 54°24' E 018°40'0 0.0
2019-Feb-18 15:29N 54°24' E 018°40'0 0.0
2019-Feb-18 14:59N 54°24' E 018°40'0 0.0
2019-Feb-18 14:29N 54°24' E 018°40'0 0.0
2019-Feb-18 13:59N 54°24' E 018°40'0 0.0
2019-Feb-18 13:29N 54°24' E 018°40'0 0.0
2019-Feb-18 12:56N 54°24' E 018°40'0 0.0
2019-Feb-18 12:26N 54°24' E 018°40'0 0.0
2019-Feb-18 11:59N 54°24' E 018°40'0 0.0
2019-Feb-18 11:29N 54°24' E 018°40'0 0.0
2019-Feb-18 10:59N 54°24' E 018°40'0 0.0
2019-Feb-18 10:29N 54°24' E 018°40'0 0.0
2019-Feb-18 09:56N 54°24' E 018°40'0 0.0
2019-Feb-18 09:29N 54°24' E 018°40'0 0.0
2019-Feb-18 08:56N 54°24' E 018°40'0 0.0
2019-Feb-18 08:29N 54°24' E 018°40'0 0.0
2019-Feb-18 07:59N 54°24' E 018°40'0 0.0
2019-Feb-18 07:29N 54°24' E 018°40'0 0.0
2019-Feb-18 06:59N 54°24' E 018°40'0 0.0
2019-Feb-18 06:29N 54°24' E 018°40'0 0.0
2019-Feb-18 05:59N 54°24' E 018°40'0 0.0
2019-Feb-18 05:29N 54°24' E 018°40'0 0.0
2019-Feb-18 04:56N 54°24' E 018°40'0 0.0
2019-Feb-18 04:29N 54°24' E 018°40'0 0.0
2019-Feb-18 03:59N 54°24' E 018°40'0 0.0
2019-Feb-18 03:29N 54°24' E 018°40'0 0.0
2019-Feb-18 02:59N 54°24' E 018°40'0 0.0
2019-Feb-18 02:29N 54°24' E 018°40'0 0.0
2019-Feb-18 01:59N 54°24' E 018°40'0 0.0
2019-Feb-18 01:29N 54°24' E 018°40'0 0.0
2019-Feb-18 00:56N 54°24' E 018°40'0 0.0
2019-Feb-18 00:29N 54°24' E 018°40'0 0.0
2019-Feb-17 23:56N 54°24' E 018°40'0 0.0
2019-Feb-17 23:29N 54°24' E 018°40'0 0.0
2019-Feb-17 22:53N 54°24' E 018°40'0 0.0
2019-Feb-17 22:29N 54°24' E 018°40'0 0.0
2019-Feb-17 21:59N 54°24' E 018°40'0 0.0
2019-Feb-17 21:29N 54°24' E 018°40'0 0.0
2019-Feb-17 20:59N 54°24' E 018°40'0 0.0
2019-Feb-17 20:29N 54°24' E 018°40'0 0.0
2019-Feb-17 19:59N 54°24' E 018°40'0 0.0
2019-Feb-17 19:26N 54°24' E 018°40'0 0.0
2019-Feb-17 18:59N 54°24' E 018°40'0 0.0
2019-Feb-17 18:29N 54°24' E 018°40'0 0.0
2019-Feb-17 17:56N 54°24' E 018°40'0 0.0
2019-Feb-17 17:29N 54°24' E 018°40'0 0.0
2019-Feb-17 16:59N 54°24' E 018°40'0 0.0
2019-Feb-17 16:29N 54°24' E 018°40'0 0.0
2019-Feb-17 15:56N 54°24' E 018°40'0 0.0
2019-Feb-17 15:29N 54°24' E 018°40'0 0.0
2019-Feb-17 14:59N 54°24' E 018°40'0 0.0
2019-Feb-17 14:29N 54°24' E 018°40'0 0.0
2019-Feb-17 13:59N 54°24' E 018°40'0 0.0
2019-Feb-17 13:23N 54°24' E 018°40'0 0.0
2019-Feb-17 12:59N 54°24' E 018°40'0 0.0
2019-Feb-17 12:29N 54°24' E 018°40'0 0.0
2019-Feb-17 11:59N 54°24' E 018°40'0 0.0
2019-Feb-17 11:29N 54°24' E 018°40'0 0.0
2019-Feb-17 10:59N 54°24' E 018°40'0 0.0
2019-Feb-17 10:29N 54°24' E 018°40'0 0.0
2019-Feb-17 09:59N 54°24' E 018°40'0 0.0
2019-Feb-17 09:26N 54°24' E 018°40'0 0.0
2019-Feb-17 08:56N 54°24' E 018°40'0 0.0
2019-Feb-17 08:29N 54°24' E 018°40'0 0.0
2019-Feb-17 07:59N 54°24' E 018°40'0 0.0
2019-Feb-17 07:28N 54°24' E 018°40'0 0.0
2019-Feb-17 06:58N 54°24' E 018°40'0 0.0
2019-Feb-17 06:28N 54°24' E 018°40'0 0.0
2019-Feb-17 05:55N 54°24' E 018°40'0 0.0
2019-Feb-17 05:28N 54°24' E 018°40'0 0.0
2019-Feb-17 04:58N 54°24' E 018°40'0 0.0
2019-Feb-17 04:28N 54°24' E 018°40'0 0.0
2019-Feb-17 03:58N 54°24' E 018°40'0 0.0
2019-Feb-17 03:28N 54°24' E 018°40'0 0.0
2019-Feb-17 02:58N 54°24' E 018°40'0 0.0
2019-Feb-17 02:28N 54°24' E 018°40'0 0.0
2019-Feb-17 01:58N 54°24' E 018°40'0 0.0
2019-Feb-17 01:25N 54°24' E 018°40'0 0.0
2019-Feb-17 00:55N 54°24' E 018°40'0 0.0
2019-Feb-17 00:25N 54°24' E 018°40'0 0.0
2019-Feb-16 23:58N 54°24' E 018°40'0 0.0
2019-Feb-16 23:28N 54°24' E 018°40'0 0.0
2019-Feb-16 22:58N 54°24' E 018°40'0 0.0
2019-Feb-16 22:28N 54°24' E 018°40'0 0.0
2019-Feb-16 21:58N 54°24' E 018°40'0 0.0
2019-Feb-16 21:25N 54°24' E 018°40'0 0.0
2019-Feb-16 20:55N 54°24' E 018°40'0 0.0
2019-Feb-16 20:25N 54°24' E 018°40'0 0.0
2019-Feb-16 19:49N 54°24' E 018°40'0 0.0
2019-Feb-16 19:28N 54°24' E 018°40'0 0.0
2019-Feb-16 18:58N 54°24' E 018°40'0 0.0
2019-Feb-16 18:25N 54°24' E 018°40'0 0.0
2019-Feb-16 17:52N 54°24' E 018°40'0 0.0
2019-Feb-16 17:28N 54°24' E 018°40'0 0.0
2019-Feb-16 16:58N 54°24' E 018°40'0 0.0
2019-Feb-16 16:22N 54°24' E 018°40'0 0.0
2019-Feb-16 15:58N 54°24' E 018°40'0 0.0
2019-Feb-16 15:28N 54°24' E 018°40'0 0.0
2019-Feb-16 14:58N 54°24' E 018°40'0 0.0
2019-Feb-16 14:28N 54°24' E 018°40'0 0.0
2019-Feb-16 13:52N 54°24' E 018°40'0 0.0
2019-Feb-16 13:28N 54°24' E 018°40'0 0.0
2019-Feb-16 12:58N 54°24' E 018°40'0 0.0
2019-Feb-16 12:28N 54°24' E 018°40'0 0.0
2019-Feb-16 11:55N 54°24' E 018°40'0 0.0
2019-Feb-16 11:22N 54°24' E 018°40'0 0.0
2019-Feb-16 10:58N 54°24' E 018°40'0 0.0
2019-Feb-16 10:28N 54°24' E 018°40'0 0.0
2019-Feb-16 09:58N 54°24' E 018°40'0 0.0
2019-Feb-16 09:28N 54°24' E 018°40'0 0.0
2019-Feb-16 08:58N 54°24' E 018°40'0 0.0
2019-Feb-16 08:22N 54°24' E 018°40'0 0.0
2019-Feb-16 07:55N 54°24' E 018°40'0 0.0
2019-Feb-16 07:25N 54°24' E 018°40'0 0.0
2019-Feb-16 06:58N 54°24' E 018°40'0 0.0
2019-Feb-16 06:28N 54°24' E 018°40'0 0.0
2019-Feb-16 05:58N 54°24' E 018°40'0 0.0
2019-Feb-16 05:28N 54°24' E 018°40'0 0.0
2019-Feb-16 04:55N 54°24' E 018°40'0 0.0
2019-Feb-16 04:28N 54°24' E 018°40'0 0.0
2019-Feb-16 03:55N 54°24' E 018°40'0 0.0
2019-Feb-16 03:28N 54°24' E 018°40'0 0.0
2019-Feb-16 02:52N 54°24' E 018°40'0 0.0
2019-Feb-16 02:25N 54°24' E 018°40'0 0.0
2019-Feb-16 01:58N 54°24' E 018°40'0 0.0
2019-Feb-16 01:28N 54°24' E 018°40'0 0.0
2019-Feb-16 00:58N 54°24' E 018°40'0 0.0
2019-Feb-16 00:22N 54°24' E 018°40'0 0.0
2019-Feb-15 23:55N 54°24' E 018°40'0 0.0
2019-Feb-15 23:01N 54°24' E 018°40'0 0.1
2019-Feb-15 22:58N 54°24' E 018°40'0 0.0
2019-Feb-15 22:25N 54°24' E 018°40'0 0.0
2019-Feb-15 21:58N 54°24' E 018°40'0 0.0
2019-Feb-15 21:19N 54°24' E 018°40'0 0.0
2019-Feb-15 20:58N 54°24' E 018°40'0 0.0
2019-Feb-15 20:28N 54°24' E 018°40'0 0.0
2019-Feb-15 19:31N 54°24' E 018°40'0 0.1
2019-Feb-15 19:28N 54°24' E 018°40'0 0.0
2019-Feb-15 18:58N 54°24' E 018°40'0 0.0
2019-Feb-15 18:25N 54°24' E 018°40'0 0.0
2019-Feb-15 17:43N 54°24' E 018°40'0 0.0
2019-Feb-15 17:28N 54°24' E 018°40'0 0.0
2019-Feb-15 16:58N 54°24' E 018°40'0 0.0
2019-Feb-15 16:25N 54°24' E 018°40'0 0.0
2019-Feb-15 15:58N 54°24' E 018°40'0 0.0
2019-Feb-15 15:28N 54°24' E 018°40'0 0.0
2019-Feb-15 14:55N 54°24' E 018°40'0 0.0
2019-Feb-15 14:25N 54°24' E 018°40'0 0.0
2019-Feb-15 13:58N 54°24' E 018°40'0 0.0
2019-Feb-15 13:28N 54°24' E 018°40'0 0.0
2019-Feb-15 12:58N 54°24' E 018°40'0 0.0
2019-Feb-15 12:28N 54°24' E 018°40'0 0.0
2019-Feb-15 11:58N 54°24' E 018°40'0 0.0
2019-Feb-15 11:28N 54°24' E 018°40'0 0.0
2019-Feb-15 10:58N 54°24' E 018°40'0 0.0
2019-Feb-15 10:28N 54°24' E 018°40'0 0.0
2019-Feb-15 09:58N 54°24' E 018°40'0 0.0
2019-Feb-15 09:28N 54°24' E 018°40'0 0.0
2019-Feb-15 08:58N 54°24' E 018°40'0 0.0
2019-Feb-15 08:28N 54°24' E 018°40'0 0.0
2019-Feb-15 08:00N 54°24' E 018°40'0 0.0
2019-Feb-15 07:30N 54°24' E 018°40'1 2.0
2019-Feb-15 07:00N 54°25' E 018°40'2 3.3
2019-Feb-15 06:27N 54°26' E 018°39'0 0.0
2019-Feb-15 06:00N 54°26' E 018°39'0 0.0
2019-Feb-15 05:30N 54°26' E 018°39'0 0.0
2019-Feb-15 05:00N 54°26' E 018°39'0 0.0
2019-Feb-15 04:30N 54°26' E 018°39'0 0.0
2019-Feb-15 04:00N 54°26' E 018°39'0 0.0
2019-Feb-15 03:30N 54°26' E 018°39'0 0.0
2019-Feb-15 03:00N 54°26' E 018°39'0 0.0
2019-Feb-15 02:30N 54°26' E 018°39'0 0.0
2019-Feb-15 02:00N 54°26' E 018°39'0 0.0
2019-Feb-15 01:24N 54°26' E 018°39'0 0.0
2019-Feb-15 00:57N 54°26' E 018°39'0 0.0
2019-Feb-15 00:30N 54°26' E 018°39'0 0.0
2019-Feb-15 00:00N 54°26' E 018°39'0 0.0
2019-Feb-14 23:30N 54°26' E 018°39'0 0.0
2019-Feb-14 23:00N 54°26' E 018°39'0 0.0
2019-Feb-14 22:24N 54°26' E 018°39'0 0.0
2019-Feb-14 22:00N 54°26' E 018°39'0 0.0
2019-Feb-14 21:30N 54°26' E 018°39'0 0.0
2019-Feb-14 21:00N 54°26' E 018°39'0 0.0
2019-Feb-14 20:30N 54°26' E 018°39'0 0.0
2019-Feb-14 19:57N 54°26' E 018°39'0 0.0
2019-Feb-14 19:30N 54°26' E 018°39'1 1.4
2019-Feb-14 19:00N 54°27' E 018°40'510.5
2019-Feb-14 18:30N 54°31' E 018°46'510.4
2019-Feb-14 18:00N 54°35' E 018°51'510.5
2019-Feb-14 17:30N 54°39' E 018°56'17 7.1
2019-Feb-14 15:04N 54°50' E 019°19'0 0.2
2019-Feb-14 14:43N 54°50' E 019°20'5 7.8
2019-Feb-14 14:00N 54°45' E 019°18'4 7.8
2019-Feb-14 13:30N 54°41' E 019°18'1 1.9
2019-Feb-14 12:45N 54°39' E 019°18'0 0.3
2019-Feb-14 12:27N 54°39' E 019°17'3 5.7
2019-Feb-14 11:58N 54°37' E 019°15'2 3.1
2019-Feb-14 11:24N 54°35' E 019°14'0 0.0
2019-Feb-14 11:00N 54°35' E 019°14'1 2.2
2019-Feb-14 10:25N 54°34' E 019°13'3 7.9
2019-Feb-14 10:00N 54°32' E 019°09'2 4.1
2019-Feb-14 09:29N 54°30' E 019°07'0 0.1
2019-Feb-14 08:59N 54°30' E 019°07'1 2.9
2019-Feb-14 08:30N 54°29' E 019°06'4 7.7
2019-Feb-14 08:00N 54°26' E 019°02'2 3.4
2019-Feb-14 07:29N 54°24' E 019°00'0 0.0
2019-Feb-14 06:53N 54°24' E 019°00'1 2.3
2019-Feb-14 06:31N 54°25' E 018°59'510.8
2019-Feb-14 06:01N 54°25' E 018°49'510.8
2019-Feb-14 05:31N 54°26' E 018°40'2 4.4
2019-Feb-14 04:57N 54°24' E 018°40'0 0.0
2019-Feb-14 04:15N 54°24' E 018°40'0 0.0
2019-Feb-14 04:00N 54°24' E 018°40'0 0.0
2019-Feb-14 03:00N 54°24' E 018°40'0 0.0
2019-Feb-14 02:30N 54°24' E 018°40'0 0.0
2019-Feb-14 02:00N 54°24' E 018°40'0 0.0
2019-Feb-14 01:30N 54°24' E 018°40'0 0.0
2019-Feb-14 01:00N 54°24' E 018°40'0 0.0
2019-Feb-14 00:30N 54°24' E 018°40'0 0.0
2019-Feb-14 00:00N 54°24' E 018°40'0 0.0
2019-Feb-13 23:30N 54°24' E 018°40'0 0.0
2019-Feb-13 23:00N 54°24' E 018°40'  
Track history (hours):
 
Tides and Currents Weather Stations Pressure Air Temp Water Temp Dewpoint Dewpoint Depression Visibility Wind Speed Wind Dir Waves Ship Positions

Oceanographic research ship Oceania (Poland)

Detailed information on ship capabilities available from University of Delaware's Ocean Information Center and ARCUS's ALIAS (Arctic Logistics Information and Support) project.

Last reported at 2019-Feb-23 22:48 UTC. Time now 2019-Feb-23 23:10 UTC.
Position N 55°04' E 015°09'.

Length 49 m; beam 9 m.

Type: Sailing vessel. MMSI: 261000142.

Date/timePositionNaut miles runAvg speedWind from/ knotsBaromVisibWave heightAir tempDewpointWater temp
2019-Feb-23 22:48N 55°04' E 015°09'0 0.0
2019-Feb-23 20:15N 55°04' E 015°09'0 0.0
2019-Feb-23 19:11N 55°04' E 015°09'1 4.3
2019-Feb-23 18:56N 55°04' E 015°11'4 8.0
2019-Feb-23 18:29N 55°05' E 015°17'4 7.6
2019-Feb-23 17:59N 55°07' E 015°23'19 6.8
2019-Feb-23 15:08N 55°13' E 015°54'1 3.8
2019-Feb-23 14:55N 55°13' E 015°56'6 4.1
2019-Feb-23 13:22N 55°13' E 016°07'4 4.3
2019-Feb-23 12:32N 55°13' E 016°13'0 4.5
2019-Feb-23 12:31N 55°13' E 016°13'16 3.4
2019-Feb-23 07:57N 55°13' E 016°41'  
2019-Feb-21 01:57N 55°07' E 018°46'2 4.7
2019-Feb-21 01:30N 55°05' E 018°49'12 4.7
2019-Feb-20 22:51N 54°57' E 019°05'17 2.8
2019-Feb-20 16:53N 54°41' E 019°12'2 4.7
2019-Feb-20 16:30N 54°40' E 019°11'2 4.4
2019-Feb-20 16:00N 54°38' E 019°09'2 4.7
2019-Feb-20 15:30N 54°35' E 019°08'2 4.6
2019-Feb-20 15:01N 54°33' E 019°06'2 4.6
2019-Feb-20 14:30N 54°31' E 019°04'2 4.6
2019-Feb-20 14:01N 54°29' E 019°03'2 4.4
2019-Feb-20 13:31N 54°27' E 019°01'2 4.7
2019-Feb-20 13:00N 54°25' E 018°59'2 4.4
2019-Feb-20 12:31N 54°23' E 018°57'510.4
2019-Feb-20 12:01N 54°24' E 018°49'510.8
2019-Feb-20 11:31N 54°26' E 018°40'2 4.4
2019-Feb-20 10:59N 54°24' E 018°40'0 0.0
2019-Feb-20 10:26N 54°24' E 018°40'0 0.0
2019-Feb-20 09:59N 54°24' E 018°40'0 0.0
2019-Feb-20 09:29N 54°24' E 018°40'0 0.0
2019-Feb-20 08:59N 54°24' E 018°40'0 0.0
2019-Feb-20 08:26N 54°24' E 018°40'0 0.0
2019-Feb-20 07:59N 54°24' E 018°40'0 0.0
2019-Feb-20 07:29N 54°24' E 018°40'0 0.0
2019-Feb-20 06:59N 54°24' E 018°40'0 0.0
2019-Feb-20 06:29N 54°24' E 018°40'0 0.0
2019-Feb-20 05:59N 54°24' E 018°40'0 0.0
2019-Feb-20 05:29N 54°24' E 018°40'0 0.0
2019-Feb-20 04:56N 54°24' E 018°40'0 0.0
2019-Feb-20 04:23N 54°24' E 018°40'0 0.0
2019-Feb-20 03:59N 54°24' E 018°40'0 0.0
2019-Feb-20 02:59N 54°24' E 018°40'0 0.0
2019-Feb-20 02:29N 54°24' E 018°40'0 0.0
2019-Feb-20 01:59N 54°24' E 018°40'0 0.0
2019-Feb-20 01:29N 54°24' E 018°40'0 0.0
2019-Feb-20 00:59N 54°24' E 018°40'0 0.0
2019-Feb-20 00:29N 54°24' E 018°40'0 0.0
2019-Feb-19 23:59N 54°24' E 018°40'0 0.0
2019-Feb-19 23:29N 54°24' E 018°40'0 0.0
2019-Feb-19 22:59N 54°24' E 018°40'0 0.0
2019-Feb-19 22:29N 54°24' E 018°40'0 0.0
2019-Feb-19 21:59N 54°24' E 018°40'0 0.0
2019-Feb-19 21:26N 54°24' E 018°40'0 0.0
2019-Feb-19 20:56N 54°24' E 018°40'0 0.0
2019-Feb-19 20:26N 54°24' E 018°40'0 0.0
2019-Feb-19 19:56N 54°24' E 018°40'0 0.0
2019-Feb-19 19:26N 54°24' E 018°40'0 0.0
2019-Feb-19 18:56N 54°24' E 018°40'0 0.0
2019-Feb-19 18:26N 54°24' E 018°40'0 0.0
2019-Feb-19 17:56N 54°24' E 018°40'0 0.0
2019-Feb-19 17:20N 54°24' E 018°40'0 0.0
2019-Feb-19 16:59N 54°24' E 018°40'0 0.0
2019-Feb-19 16:29N 54°24' E 018°40'0 0.0
2019-Feb-19 15:59N 54°24' E 018°40'0 0.0
2019-Feb-19 15:29N 54°24' E 018°40'0 0.0
2019-Feb-19 14:59N 54°24' E 018°40'0 0.0
2019-Feb-19 14:26N 54°24' E 018°40'0 0.0
2019-Feb-19 13:56N 54°24' E 018°40'0 0.0
2019-Feb-19 13:29N 54°24' E 018°40'0 0.0
2019-Feb-19 12:56N 54°24' E 018°40'0 0.0
2019-Feb-19 12:29N 54°24' E 018°40'0 0.0
2019-Feb-19 11:56N 54°24' E 018°40'0 0.0
2019-Feb-19 11:26N 54°24' E 018°40'0 0.0
2019-Feb-19 10:56N 54°24' E 018°40'0 0.0
2019-Feb-19 10:29N 54°24' E 018°40'0 0.0
2019-Feb-19 09:56N 54°24' E 018°40'0 0.0
2019-Feb-19 09:29N 54°24' E 018°40'0 0.0
2019-Feb-19 08:59N 54°24' E 018°40'0 0.0
2019-Feb-19 08:23N 54°24' E 018°40'0 0.0
2019-Feb-19 07:56N 54°24' E 018°40'0 0.0
2019-Feb-19 07:29N 54°24' E 018°40'0 0.0
2019-Feb-19 06:56N 54°24' E 018°40'0 0.0
2019-Feb-19 06:29N 54°24' E 018°40'0 0.0
2019-Feb-19 05:56N 54°24' E 018°40'0 0.0
2019-Feb-19 05:29N 54°24' E 018°40'0 0.0
2019-Feb-19 04:59N 54°24' E 018°40'0 0.0
2019-Feb-19 04:29N 54°24' E 018°40'0 0.0
2019-Feb-19 03:59N 54°24' E 018°40'0 0.0
2019-Feb-19 03:29N 54°24' E 018°40'0 0.0
2019-Feb-19 02:59N 54°24' E 018°40'0 0.0
2019-Feb-19 02:26N 54°24' E 018°40'0 0.0
2019-Feb-19 01:56N 54°24' E 018°40'0 0.0
2019-Feb-19 01:29N 54°24' E 018°40'0 0.0
2019-Feb-19 00:59N 54°24' E 018°40'0 0.0
2019-Feb-19 00:29N 54°24' E 018°40'0 0.0
2019-Feb-18 23:59N 54°24' E 018°40'0 0.0
2019-Feb-18 23:29N 54°24' E 018°40'0 0.0
2019-Feb-18 22:56N 54°24' E 018°40'0 0.0
2019-Feb-18 22:23N 54°24' E 018°40'0 0.0
2019-Feb-18 21:56N 54°24' E 018°40'0 0.0
2019-Feb-18 21:29N 54°24' E 018°40'0 0.0
2019-Feb-18 20:59N 54°24' E 018°40'0 0.0
2019-Feb-18 20:29N 54°24' E 018°40'0 0.0
2019-Feb-18 19:59N 54°24' E 018°40'0 0.0
2019-Feb-18 19:17N 54°24' E 018°40'0 0.0
2019-Feb-18 18:59N 54°24' E 018°40'0 0.0
2019-Feb-18 18:26N 54°24' E 018°40'0 0.0
2019-Feb-18 17:59N 54°24' E 018°40'0 0.0
2019-Feb-18 17:29N 54°24' E 018°40'0 0.0
2019-Feb-18 16:56N 54°24' E 018°40'0 0.0
2019-Feb-18 16:29N 54°24' E 018°40'0 0.0
2019-Feb-18 15:53N 54°24' E 018°40'0 0.0
2019-Feb-18 15:29N 54°24' E 018°40'0 0.0
2019-Feb-18 14:59N 54°24' E 018°40'0 0.0
2019-Feb-18 14:29N 54°24' E 018°40'0 0.0
2019-Feb-18 13:59N 54°24' E 018°40'0 0.0
2019-Feb-18 13:29N 54°24' E 018°40'0 0.0
2019-Feb-18 12:56N 54°24' E 018°40'0 0.0
2019-Feb-18 12:26N 54°24' E 018°40'0 0.0
2019-Feb-18 11:59N 54°24' E 018°40'0 0.0
2019-Feb-18 11:29N 54°24' E 018°40'0 0.0
2019-Feb-18 10:59N 54°24' E 018°40'0 0.0
2019-Feb-18 10:29N 54°24' E 018°40'0 0.0
2019-Feb-18 09:56N 54°24' E 018°40'0 0.0
2019-Feb-18 09:29N 54°24' E 018°40'0 0.0
2019-Feb-18 08:56N 54°24' E 018°40'0 0.0
2019-Feb-18 08:29N 54°24' E 018°40'0 0.0
2019-Feb-18 07:59N 54°24' E 018°40'0 0.0
2019-Feb-18 07:29N 54°24' E 018°40'0 0.0
2019-Feb-18 06:59N 54°24' E 018°40'0 0.0
2019-Feb-18 06:29N 54°24' E 018°40'0 0.0
2019-Feb-18 05:59N 54°24' E 018°40'0 0.0
2019-Feb-18 05:29N 54°24' E 018°40'0 0.0
2019-Feb-18 04:56N 54°24' E 018°40'0 0.0
2019-Feb-18 04:29N 54°24' E 018°40'0 0.0
2019-Feb-18 03:59N 54°24' E 018°40'0 0.0
2019-Feb-18 03:29N 54°24' E 018°40'0 0.0
2019-Feb-18 02:59N 54°24' E 018°40'0 0.0
2019-Feb-18 02:29N 54°24' E 018°40'0 0.0
2019-Feb-18 01:59N 54°24' E 018°40'0 0.0
2019-Feb-18 01:29N 54°24' E 018°40'0 0.0
2019-Feb-18 00:56N 54°24' E 018°40'0 0.0
2019-Feb-18 00:29N 54°24' E 018°40'0 0.0
2019-Feb-17 23:56N 54°24' E 018°40'0 0.0
2019-Feb-17 23:29N 54°24' E 018°40'0 0.0
2019-Feb-17 22:53N 54°24' E 018°40'0 0.0
2019-Feb-17 22:29N 54°24' E 018°40'0 0.0
2019-Feb-17 21:59N 54°24' E 018°40'0 0.0
2019-Feb-17 21:29N 54°24' E 018°40'0 0.0
2019-Feb-17 20:59N 54°24' E 018°40'0 0.0
2019-Feb-17 20:29N 54°24' E 018°40'0 0.0
2019-Feb-17 19:59N 54°24' E 018°40'0 0.0
2019-Feb-17 19:26N 54°24' E 018°40'0 0.0
2019-Feb-17 18:59N 54°24' E 018°40'0 0.0
2019-Feb-17 18:29N 54°24' E 018°40'0 0.0
2019-Feb-17 17:56N 54°24' E 018°40'0 0.0
2019-Feb-17 17:29N 54°24' E 018°40'0 0.0
2019-Feb-17 16:59N 54°24' E 018°40'0 0.0
2019-Feb-17 16:29N 54°24' E 018°40'0 0.0
2019-Feb-17 15:56N 54°24' E 018°40'0 0.0
2019-Feb-17 15:29N 54°24' E 018°40'0 0.0
2019-Feb-17 14:59N 54°24' E 018°40'0 0.0
2019-Feb-17 14:29N 54°24' E 018°40'0 0.0
2019-Feb-17 13:59N 54°24' E 018°40'0 0.0
2019-Feb-17 13:23N 54°24' E 018°40'0 0.0
2019-Feb-17 12:59N 54°24' E 018°40'0 0.0
2019-Feb-17 12:29N 54°24' E 018°40'0 0.0
2019-Feb-17 11:59N 54°24' E 018°40'0 0.0
2019-Feb-17 11:29N 54°24' E 018°40'0 0.0
2019-Feb-17 10:59N 54°24' E 018°40'0 0.0
2019-Feb-17 10:29N 54°24' E 018°40'0 0.0
2019-Feb-17 09:59N 54°24' E 018°40'0 0.0
2019-Feb-17 09:26N 54°24' E 018°40'0 0.0
2019-Feb-17 08:56N 54°24' E 018°40'0 0.0
2019-Feb-17 08:29N 54°24' E 018°40'0 0.0
2019-Feb-17 07:59N 54°24' E 018°40'0 0.0
2019-Feb-17 07:28N 54°24' E 018°40'0 0.0
2019-Feb-17 06:58N 54°24' E 018°40'0 0.0
2019-Feb-17 06:28N 54°24' E 018°40'0 0.0
2019-Feb-17 05:55N 54°24' E 018°40'0 0.0
2019-Feb-17 05:28N 54°24' E 018°40'0 0.0
2019-Feb-17 04:58N 54°24' E 018°40'0 0.0
2019-Feb-17 04:28N 54°24' E 018°40'0 0.0
2019-Feb-17 03:58N 54°24' E 018°40'0 0.0
2019-Feb-17 03:28N 54°24' E 018°40'0 0.0
2019-Feb-17 02:58N 54°24' E 018°40'0 0.0
2019-Feb-17 02:28N 54°24' E 018°40'0 0.0
2019-Feb-17 01:58N 54°24' E 018°40'0 0.0
2019-Feb-17 01:25N 54°24' E 018°40'0 0.0
2019-Feb-17 00:55N 54°24' E 018°40'0 0.0
2019-Feb-17 00:25N 54°24' E 018°40'0 0.0
2019-Feb-16 23:58N 54°24' E 018°40'0 0.0
2019-Feb-16 23:28N 54°24' E 018°40'0 0.0
2019-Feb-16 22:58N 54°24' E 018°40'0 0.0
2019-Feb-16 22:28N 54°24' E 018°40'0 0.0
2019-Feb-16 21:58N 54°24' E 018°40'0 0.0
2019-Feb-16 21:25N 54°24' E 018°40'0 0.0
2019-Feb-16 20:55N 54°24' E 018°40'0 0.0
2019-Feb-16 20:25N 54°24' E 018°40'0 0.0
2019-Feb-16 19:49N 54°24' E 018°40'0 0.0
2019-Feb-16 19:28N 54°24' E 018°40'0 0.0
2019-Feb-16 18:58N 54°24' E 018°40'0 0.0
2019-Feb-16 18:25N 54°24' E 018°40'0 0.0
2019-Feb-16 17:52N 54°24' E 018°40'0 0.0
2019-Feb-16 17:28N 54°24' E 018°40'0 0.0
2019-Feb-16 16:58N 54°24' E 018°40'0 0.0
2019-Feb-16 16:22N 54°24' E 018°40'0 0.0
2019-Feb-16 15:58N 54°24' E 018°40'0 0.0
2019-Feb-16 15:28N 54°24' E 018°40'0 0.0
2019-Feb-16 14:58N 54°24' E 018°40'0 0.0
2019-Feb-16 14:28N 54°24' E 018°40'0 0.0
2019-Feb-16 13:52N 54°24' E 018°40'0 0.0
2019-Feb-16 13:28N 54°24' E 018°40'0 0.0
2019-Feb-16 12:58N 54°24' E 018°40'0 0.0
2019-Feb-16 12:28N 54°24' E 018°40'0 0.0
2019-Feb-16 11:55N 54°24' E 018°40'0 0.0
2019-Feb-16 11:22N 54°24' E 018°40'0 0.0
2019-Feb-16 10:58N 54°24' E 018°40'0 0.0
2019-Feb-16 10:28N 54°24' E 018°40'0 0.0
2019-Feb-16 09:58N 54°24' E 018°40'0 0.0
2019-Feb-16 09:28N 54°24' E 018°40'0 0.0
2019-Feb-16 08:58N 54°24' E 018°40'0 0.0
2019-Feb-16 08:22N 54°24' E 018°40'0 0.0
2019-Feb-16 07:55N 54°24' E 018°40'0 0.0
2019-Feb-16 07:25N 54°24' E 018°40'0 0.0
2019-Feb-16 06:58N 54°24' E 018°40'0 0.0
2019-Feb-16 06:28N 54°24' E 018°40'0 0.0
2019-Feb-16 05:58N 54°24' E 018°40'0 0.0
2019-Feb-16 05:28N 54°24' E 018°40'0 0.0
2019-Feb-16 04:55N 54°24' E 018°40'0 0.0
2019-Feb-16 04:28N 54°24' E 018°40'0 0.0
2019-Feb-16 03:55N 54°24' E 018°40'0 0.0
2019-Feb-16 03:28N 54°24' E 018°40'0 0.0
2019-Feb-16 02:52N 54°24' E 018°40'0 0.0
2019-Feb-16 02:25N 54°24' E 018°40'0 0.0
2019-Feb-16 01:58N 54°24' E 018°40'0 0.0
2019-Feb-16 01:28N 54°24' E 018°40'0 0.0
2019-Feb-16 00:58N 54°24' E 018°40'0 0.0
2019-Feb-16 00:22N 54°24' E 018°40'0 0.0
2019-Feb-15 23:55N 54°24' E 018°40'0 0.0
2019-Feb-15 23:01N 54°24' E 018°40'0 0.1
2019-Feb-15 22:58N 54°24' E 018°40'0 0.0
2019-Feb-15 22:25N 54°24' E 018°40'0 0.0
2019-Feb-15 21:58N 54°24' E 018°40'0 0.0
2019-Feb-15 21:19N 54°24' E 018°40'0 0.0
2019-Feb-15 20:58N 54°24' E 018°40'0 0.0
2019-Feb-15 20:28N 54°24' E 018°40'0 0.0
2019-Feb-15 19:31N 54°24' E 018°40'0 0.1
2019-Feb-15 19:28N 54°24' E 018°40'0 0.0
2019-Feb-15 18:58N 54°24' E 018°40'0 0.0
2019-Feb-15 18:25N 54°24' E 018°40'0 0.0
2019-Feb-15 17:43N 54°24' E 018°40'0 0.0
2019-Feb-15 17:28N 54°24' E 018°40'0 0.0
2019-Feb-15 16:58N 54°24' E 018°40'0 0.0
2019-Feb-15 16:25N 54°24' E 018°40'0 0.0
2019-Feb-15 15:58N 54°24' E 018°40'0 0.0
2019-Feb-15 15:28N 54°24' E 018°40'0 0.0
2019-Feb-15 14:55N 54°24' E 018°40'0 0.0
2019-Feb-15 14:25N 54°24' E 018°40'0 0.0
2019-Feb-15 13:58N 54°24' E 018°40'0 0.0
2019-Feb-15 13:28N 54°24' E 018°40'0 0.0
2019-Feb-15 12:58N 54°24' E 018°40'0 0.0
2019-Feb-15 12:28N 54°24' E 018°40'0 0.0
2019-Feb-15 11:58N 54°24' E 018°40'0 0.0
2019-Feb-15 11:28N 54°24' E 018°40'0 0.0
2019-Feb-15 10:58N 54°24' E 018°40'0 0.0
2019-Feb-15 10:28N 54°24' E 018°40'0 0.0
2019-Feb-15 09:58N 54°24' E 018°40'0 0.0
2019-Feb-15 09:28N 54°24' E 018°40'0 0.0
2019-Feb-15 08:58N 54°24' E 018°40'0 0.0
2019-Feb-15 08:28N 54°24' E 018°40'0 0.0
2019-Feb-15 08:00N 54°24' E 018°40'0 0.0
2019-Feb-15 07:30N 54°24' E 018°40'1 2.0
2019-Feb-15 07:00N 54°25' E 018°40'2 3.3
2019-Feb-15 06:27N 54°26' E 018°39'0 0.0
2019-Feb-15 06:00N 54°26' E 018°39'0 0.0
2019-Feb-15 05:30N 54°26' E 018°39'0 0.0
2019-Feb-15 05:00N 54°26' E 018°39'0 0.0
2019-Feb-15 04:30N 54°26' E 018°39'0 0.0
2019-Feb-15 04:00N 54°26' E 018°39'0 0.0
2019-Feb-15 03:30N 54°26' E 018°39'0 0.0
2019-Feb-15 03:00N 54°26' E 018°39'0 0.0
2019-Feb-15 02:30N 54°26' E 018°39'0 0.0
2019-Feb-15 02:00N 54°26' E 018°39'0 0.0
2019-Feb-15 01:24N 54°26' E 018°39'0 0.0
2019-Feb-15 00:57N 54°26' E 018°39'0 0.0
2019-Feb-15 00:30N 54°26' E 018°39'0 0.0
2019-Feb-15 00:00N 54°26' E 018°39'0 0.0
2019-Feb-14 23:30N 54°26' E 018°39'0 0.0
2019-Feb-14 23:00N 54°26' E 018°39'0 0.0
2019-Feb-14 22:24N 54°26' E 018°39'0 0.0
2019-Feb-14 22:00N 54°26' E 018°39'0 0.0
2019-Feb-14 21:30N 54°26' E 018°39'0 0.0
2019-Feb-14 21:00N 54°26' E 018°39'0 0.0
2019-Feb-14 20:30N 54°26' E 018°39'0 0.0
2019-Feb-14 19:57N 54°26' E 018°39'0 0.0
2019-Feb-14 19:30N 54°26' E 018°39'1 1.4
2019-Feb-14 19:00N 54°27' E 018°40'510.5
2019-Feb-14 18:30N 54°31' E 018°46'510.4
2019-Feb-14 18:00N 54°35' E 018°51'510.5
2019-Feb-14 17:30N 54°39' E 018°56'17 7.1
2019-Feb-14 15:04N 54°50' E 019°19'0 0.2
2019-Feb-14 14:43N 54°50' E 019°20'5 7.8
2019-Feb-14 14:00N 54°45' E 019°18'4 7.8
2019-Feb-14 13:30N 54°41' E 019°18'1 1.9
2019-Feb-14 12:45N 54°39' E 019°18'0 0.3
2019-Feb-14 12:27N 54°39' E 019°17'3 5.7
2019-Feb-14 11:58N 54°37' E 019°15'2 3.1
2019-Feb-14 11:24N 54°35' E 019°14'0 0.0
2019-Feb-14 11:00N 54°35' E 019°14'1 2.2
2019-Feb-14 10:25N 54°34' E 019°13'3 7.9
2019-Feb-14 10:00N 54°32' E 019°09'2 4.1
2019-Feb-14 09:29N 54°30' E 019°07'0 0.1
2019-Feb-14 08:59N 54°30' E 019°07'1 2.9
2019-Feb-14 08:30N 54°29' E 019°06'4 7.7
2019-Feb-14 08:00N 54°26' E 019°02'2 3.4
2019-Feb-14 07:29N 54°24' E 019°00'0 0.0
2019-Feb-14 06:53N 54°24' E 019°00'1 2.3
2019-Feb-14 06:31N 54°25' E 018°59'510.8
2019-Feb-14 06:01N 54°25' E 018°49'510.8
2019-Feb-14 05:31N 54°26' E 018°40'2 4.4
2019-Feb-14 04:57N 54°24' E 018°40'0 0.0
2019-Feb-14 04:15N 54°24' E 018°40'0 0.0
2019-Feb-14 04:00N 54°24' E 018°40'0 0.0
2019-Feb-14 03:00N 54°24' E 018°40'0 0.0
2019-Feb-14 02:30N 54°24' E 018°40'0 0.0
2019-Feb-14 02:00N 54°24' E 018°40'0 0.0
2019-Feb-14 01:30N 54°24' E 018°40'0 0.0
2019-Feb-14 01:00N 54°24' E 018°40'0 0.0
2019-Feb-14 00:30N 54°24' E 018°40'0 0.0
2019-Feb-14 00:00N 54°24' E 018°40'0 0.0
2019-Feb-13 23:30N 54°24' E 018°40'0 0.0
2019-Feb-13 23:00N 54°24' E 018°40'  

Dump ship's entire track history